sensor_id;sensor_type;location;lat;lon;timestamp;pressure;altitude;pressure_sealevel;temperature;humidity
66164;BME280;52962;51.088;3.096;2022-11-13T00:00:29;102388.72;;;8.34;100.00
66164;BME280;52962;51.088;3.096;2022-11-13T00:02:57;102383.47;;;8.34;100.00
66164;BME280;52962;51.088;3.096;2022-11-13T00:05:25;102385.19;;;8.33;100.00
66164;BME280;52962;51.088;3.096;2022-11-13T00:07:53;102382.56;;;8.33;100.00
66164;BME280;52962;51.088;3.096;2022-11-13T00:10:21;102378.09;;;8.32;100.00
66164;BME280;52962;51.088;3.096;2022-11-13T00:12:49;102371.97;;;8.32;100.00
66164;BME280;52962;51.088;3.096;2022-11-13T00:15:17;102371.06;;;8.31;100.00
66164;BME280;52962;51.088;3.096;2022-11-13T00:17:46;102364.97;;;8.32;100.00
66164;BME280;52962;51.088;3.096;2022-11-13T00:20:14;102354.44;;;8.31;100.00
66164;BME280;52962;51.088;3.096;2022-11-13T00:22:42;102357.72;;;8.27;100.00
66164;BME280;52962;51.088;3.096;2022-11-13T00:25:09;102367.06;;;8.22;100.00
66164;BME280;52962;51.088;3.096;2022-11-13T00:27:37;102359.75;;;8.16;100.00
66164;BME280;52962;51.088;3.096;2022-11-13T00:30:06;102354.25;;;8.11;100.00
66164;BME280;52962;51.088;3.096;2022-11-13T00:32:34;102358.34;;;8.06;100.00
66164;BME280;52962;51.088;3.096;2022-11-13T00:35:05;102358.91;;;8.01;100.00
66164;BME280;52962;51.088;3.096;2022-11-13T00:37:33;102357.94;;;7.99;100.00
66164;BME280;52962;51.088;3.096;2022-11-13T00:40:02;102354.41;;;7.98;100.00
66164;BME280;52962;51.088;3.096;2022-11-13T00:42:30;102353.50;;;7.98;100.00
66164;BME280;52962;51.088;3.096;2022-11-13T00:44:58;102358.75;;;7.98;100.00
66164;BME280;52962;51.088;3.096;2022-11-13T00:47:26;102355.13;;;7.96;100.00
66164;BME280;52962;51.088;3.096;2022-11-13T00:49:54;102349.56;;;7.90;100.00
66164;BME280;52962;51.088;3.096;2022-11-13T00:52:23;102353.72;;;7.86;100.00
66164;BME280;52962;51.088;3.096;2022-11-13T00:54:51;102348.13;;;7.80;100.00
66164;BME280;52962;51.088;3.096;2022-11-13T00:57:19;102336.22;;;7.70;100.00
66164;BME280;52962;51.088;3.096;2022-11-13T00:59:47;102344.41;;;7.60;100.00
66164;BME280;52962;51.088;3.096;2022-11-13T01:02:15;102341.44;;;7.54;100.00
66164;BME280;52962;51.088;3.096;2022-11-13T01:04:42;102339.47;;;7.50;100.00
66164;BME280;52962;51.088;3.096;2022-11-13T01:07:10;102330.44;;;7.45;100.00
66164;BME280;52962;51.088;3.096;2022-11-13T01:09:39;102324.47;;;7.47;100.00
66164;BME280;52962;51.088;3.096;2022-11-13T01:12:07;102313.00;;;7.45;100.00
66164;BME280;52962;51.088;3.096;2022-11-13T01:14:35;102311.19;;;7.44;100.00
66164;BME280;52962;51.088;3.096;2022-11-13T01:17:03;102307.00;;;7.48;100.00
66164;BME280;52962;51.088;3.096;2022-11-13T01:19:31;102304.22;;;7.45;100.00
66164;BME280;52962;51.088;3.096;2022-11-13T01:21:59;102294.63;;;7.45;100.00
66164;BME280;52962;51.088;3.096;2022-11-13T01:24:26;102298.97;;;7.45;100.00
66164;BME280;52962;51.088;3.096;2022-11-13T01:26:56;102298.91;;;7.43;100.00
66164;BME280;52962;51.088;3.096;2022-11-13T01:29:23;102303.22;;;7.43;100.00
66164;BME280;52962;51.088;3.096;2022-11-13T01:31:51;102308.66;;;7.46;100.00
66164;BME280;52962;51.088;3.096;2022-11-13T01:34:19;102304.22;;;7.45;100.00
66164;BME280;52962;51.088;3.096;2022-11-13T01:36:47;102309.47;;;7.45;100.00
66164;BME280;52962;51.088;3.096;2022-11-13T01:39:14;102300.59;;;7.43;100.00
66164;BME280;52962;51.088;3.096;2022-11-13T01:41:42;102301.44;;;7.42;100.00
66164;BME280;52962;51.088;3.096;2022-11-13T01:44:13;102302.75;;;7.50;100.00
66164;BME280;52962;51.088;3.096;2022-11-13T01:46:43;102297.84;;;7.56;100.00
66164;BME280;52962;51.088;3.096;2022-11-13T01:49:23;102301.72;;;7.63;100.00
66164;BME280;52962;51.088;3.096;2022-11-13T01:51:55;102306.41;;;7.68;100.00
66164;BME280;52962;51.088;3.096;2022-11-13T01:54:26;102299.44;;;7.69;100.00
66164;BME280;52962;51.088;3.096;2022-11-13T01:56:56;102291.56;;;7.69;100.00
66164;BME280;52962;51.088;3.096;2022-11-13T01:59:29;102292.47;;;7.69;100.00
66164;BME280;52962;51.088;3.096;2022-11-13T02:01:58;102281.25;;;7.72;100.00
66164;BME280;52962;51.088;3.096;2022-11-13T02:04:27;102290.03;;;7.72;100.00
66164;BME280;52962;51.088;3.096;2022-11-13T02:06:58;102287.22;;;7.69;100.00
66164;BME280;52962;51.088;3.096;2022-11-13T02:09:29;102280.00;;;7.65;100.00
66164;BME280;52962;51.088;3.096;2022-11-13T02:11:58;102283.28;;;7.61;100.00
66164;BME280;52962;51.088;3.096;2022-11-13T02:14:28;102282.31;;;7.59;100.00
66164;BME280;52962;51.088;3.096;2022-11-13T02:16:59;102274.25;;;7.56;100.00
66164;BME280;52962;51.088;3.096;2022-11-13T02:19:31;102275.72;;;7.51;100.00
66164;BME280;52962;51.088;3.096;2022-11-13T02:22:04;102270.22;;;7.46;100.00
66164;BME280;52962;51.088;3.096;2022-11-13T02:24:40;102270.63;;;7.38;100.00
66164;BME280;52962;51.088;3.096;2022-11-13T02:27:16;102268.81;;;7.37;100.00
66164;BME280;52962;51.088;3.096;2022-11-13T02:29:45;102265.22;;;7.35;100.00
66164;BME280;52962;51.088;3.096;2022-11-13T02:32:13;102260.59;;;7.31;100.00
66164;BME280;52962;51.088;3.096;2022-11-13T02:34:40;102251.75;;;7.29;100.00
66164;BME280;52962;51.088;3.096;2022-11-13T02:37:08;102248.09;;;7.25;100.00
66164;BME280;52962;51.088;3.096;2022-11-13T02:39:36;102254.44;;;7.14;100.00
66164;BME280;52962;51.088;3.096;2022-11-13T02:42:05;102250.94;;;7.13;100.00
66164;BME280;52962;51.088;3.096;2022-11-13T02:44:33;102254.44;;;7.14;100.00
66164;BME280;52962;51.088;3.096;2022-11-13T02:47:01;102244.78;;;7.13;100.00
66164;BME280;52962;51.088;3.096;2022-11-13T02:49:29;102250.19;;;7.16;100.00
66164;BME280;52962;51.088;3.096;2022-11-13T02:51:57;102245.59;;;7.12;100.00
66164;BME280;52962;51.088;3.096;2022-11-13T02:54:25;102244.44;;;7.07;100.00
66164;BME280;52962;51.088;3.096;2022-11-13T02:56:52;102253.84;;;7.03;100.00
66164;BME280;52962;51.088;3.096;2022-11-13T02:59:22;102247.53;;;7.00;100.00
66164;BME280;52962;51.088;3.096;2022-11-13T03:01:49;102247.44;;;6.98;100.00
66164;BME280;52962;51.088;3.096;2022-11-13T03:04:17;102243.19;;;7.00;100.00
66164;BME280;52962;51.088;3.096;2022-11-13T03:06:45;102252.75;;;7.00;100.00
66164;BME280;52962;51.088;3.096;2022-11-13T03:09:13;102254.56;;;7.01;100.00
66164;BME280;52962;51.088;3.096;2022-11-13T03:11:41;102247.44;;;6.98;100.00
66164;BME280;52962;51.088;3.096;2022-11-13T03:14:09;102246.28;;;6.93;100.00
66164;BME280;52962;51.088;3.096;2022-11-13T03:16:39;102246.81;;;6.87;100.00
66164;BME280;52962;51.088;3.096;2022-11-13T03:19:07;102238.16;;;6.88;100.00
66164;BME280;52962;51.088;3.096;2022-11-13T03:21:34;102243.13;;;6.84;100.00
66164;BME280;52962;51.088;3.096;2022-11-13T03:24:02;102241.75;;;6.91;100.00
66164;BME280;52962;51.088;3.096;2022-11-13T03:26:30;102244.28;;;6.89;100.00
66164;BME280;52962;51.088;3.096;2022-11-13T03:28:58;102236.53;;;6.91;100.00
66164;BME280;52962;51.088;3.096;2022-11-13T03:31:26;102234.91;;;6.93;100.00
66164;BME280;52962;51.088;3.096;2022-11-13T03:33:55;102228.03;;;6.95;100.00
66164;BME280;52962;51.088;3.096;2022-11-13T03:36:23;102221.88;;;6.94;100.00
66164;BME280;52962;51.088;3.096;2022-11-13T03:38:51;102227.03;;;6.93;100.00
66164;BME280;52962;51.088;3.096;2022-11-13T03:41:20;102214.84;;;6.93;100.00
66164;BME280;52962;51.088;3.096;2022-11-13T03:43:48;102215.56;;;6.91;100.00
66164;BME280;52962;51.088;3.096;2022-11-13T03:46:16;102209.25;;;6.87;100.00
66164;BME280;52962;51.088;3.096;2022-11-13T03:48:44;102213.69;;;6.88;100.00
66164;BME280;52962;51.088;3.096;2022-11-13T03:51:13;102210.34;;;6.91;100.00
66164;BME280;52962;51.088;3.096;2022-11-13T03:53:41;102208.34;;;6.86;100.00
66164;BME280;52962;51.088;3.096;2022-11-13T03:56:09;102201.41;;;6.87;100.00
66164;BME280;52962;51.088;3.096;2022-11-13T03:58:36;102205.81;;;6.88;100.00
66164;BME280;52962;51.088;3.096;2022-11-13T04:01:06;102203.13;;;6.86;100.00
66164;BME280;52962;51.088;3.096;2022-11-13T04:03:34;102212.50;;;6.83;100.00
66164;BME280;52962;51.088;3.096;2022-11-13T04:06:02;102208.56;;;6.75;100.00
66164;BME280;52962;51.088;3.096;2022-11-13T04:08:31;102203.31;;;6.75;100.00
66164;BME280;52962;51.088;3.096;2022-11-13T04:11:05;102197.53;;;6.80;100.00
66164;BME280;52962;51.088;3.096;2022-11-13T04:13:33;102192.22;;;6.79;100.00
66164;BME280;52962;51.088;3.096;2022-11-13T04:16:00;102197.63;;;6.82;100.00
66164;BME280;52962;51.088;3.096;2022-11-13T04:18:28;102196.72;;;6.81;100.00
66164;BME280;52962;51.088;3.096;2022-11-13T04:20:58;102198.59;;;6.84;100.00
66164;BME280;52962;51.088;3.096;2022-11-13T04:23:26;102190.84;;;6.85;100.00
66164;BME280;52962;51.088;3.096;2022-11-13T04:25:55;102189.94;;;6.85;100.00
66164;BME280;52962;51.088;3.096;2022-11-13T04:28:23;102188.13;;;6.84;100.00
66164;BME280;52962;51.088;3.096;2022-11-13T04:30:52;102197.72;;;6.83;100.00
66164;BME280;52962;51.088;3.096;2022-11-13T04:33:20;102196.88;;;6.84;100.00
66164;BME280;52962;51.088;3.096;2022-11-13T04:35:48;102191.81;;;6.87;100.00
66164;BME280;52962;51.088;3.096;2022-11-13T04:38:16;102193.72;;;6.90;100.00
66164;BME280;52962;51.088;3.096;2022-11-13T04:40:44;102190.38;;;6.93;100.00
66164;BME280;52962;51.088;3.096;2022-11-13T04:43:13;102186.13;;;6.95;100.00
66164;BME280;52962;51.088;3.096;2022-11-13T04:45:40;102177.63;;;6.99;100.00
66164;BME280;52962;51.088;3.096;2022-11-13T04:48:08;102172.63;;;7.03;100.00
66164;BME280;52962;51.088;3.096;2022-11-13T04:50:35;102171.81;;;7.04;100.00
66164;BME280;52962;51.088;3.096;2022-11-13T04:53:03;102170.19;;;7.06;100.00
66164;BME280;52962;51.088;3.096;2022-11-13T04:55:31;102175.44;;;7.06;100.00
66164;BME280;52962;51.088;3.096;2022-11-13T04:57:59;102169.38;;;7.07;100.00
66164;BME280;52962;51.088;3.096;2022-11-13T05:00:28;102165.94;;;7.08;100.00
66164;BME280;52962;51.088;3.096;2022-11-13T05:02:56;102167.75;;;7.09;100.00
66164;BME280;52962;51.088;3.096;2022-11-13T05:05:24;102153.81;;;7.10;100.00
66164;BME280;52962;51.088;3.096;2022-11-13T05:07:52;102157.44;;;7.12;100.00
66164;BME280;52962;51.088;3.096;2022-11-13T05:10:20;102152.19;;;7.12;100.00
66164;BME280;52962;51.088;3.096;2022-11-13T05:12:48;102151.38;;;7.13;100.00
66164;BME280;52962;51.088;3.096;2022-11-13T05:15:16;102149.75;;;7.15;100.00
66164;BME280;52962;51.088;3.096;2022-11-13T05:17:47;102153.19;;;7.14;100.00
66164;BME280;52962;51.088;3.096;2022-11-13T05:20:15;102150.66;;;7.16;100.00
66164;BME280;52962;51.088;3.096;2022-11-13T05:22:43;102135.56;;;7.12;100.00
66164;BME280;52962;51.088;3.096;2022-11-13T05:25:11;102140.09;;;7.14;100.00
66164;BME280;52962;51.088;3.096;2022-11-13T05:27:39;102139.25;;;7.15;100.00
66164;BME280;52962;51.088;3.096;2022-11-13T05:30:08;102149.75;;;7.15;100.00
66164;BME280;52962;51.088;3.096;2022-11-13T05:32:36;102145.31;;;7.14;100.00
66164;BME280;52962;51.088;3.096;2022-11-13T05:35:06;102155.81;;;7.14;100.00
66164;BME280;52962;51.088;3.096;2022-11-13T05:37:34;102154.97;;;7.15;100.00
66164;BME280;52962;51.088;3.096;2022-11-13T05:40:02;102146.13;;;7.13;100.00
66164;BME280;52962;51.088;3.096;2022-11-13T05:42:30;102140.81;;;7.12;100.00
66164;BME280;52962;51.088;3.096;2022-11-13T05:44:58;102137.13;;;7.08;100.00
66164;BME280;52962;51.088;3.096;2022-11-13T05:47:25;102128.28;;;7.06;100.00
66164;BME280;52962;51.088;3.096;2022-11-13T05:49:53;102121.06;;;7.02;100.00
66164;BME280;52962;51.088;3.096;2022-11-13T05:52:22;102119.25;;;7.01;100.00
66164;BME280;52962;51.088;3.096;2022-11-13T05:54:50;102111.41;;;7.01;100.00
66164;BME280;52962;51.088;3.096;2022-11-13T05:57:18;102111.31;;;7.00;100.00
66164;BME280;52962;51.088;3.096;2022-11-13T05:59:46;102100.94;;;7.01;100.00
66164;BME280;52962;51.088;3.096;2022-11-13T06:02:14;102104.28;;;6.99;100.00
66164;BME280;52962;51.088;3.096;2022-11-13T06:04:41;102106.00;;;6.98;100.00
66164;BME280;52962;51.088;3.096;2022-11-13T06:07:09;102102.41;;;6.96;100.00
66164;BME280;52962;51.088;3.096;2022-11-13T06:09:39;102104.03;;;6.94;100.00
66164;BME280;52962;51.088;3.096;2022-11-13T06:12:07;102096.91;;;6.92;100.00
66164;BME280;52962;51.088;3.096;2022-11-13T06:14:35;102085.38;;;6.88;100.00
66164;BME280;52962;51.088;3.096;2022-11-13T06:17:02;102089.69;;;6.87;100.00
66164;BME280;52962;51.088;3.096;2022-11-13T06:19:30;102101.25;;;6.91;100.00
66164;BME280;52962;51.088;3.096;2022-11-13T06:21:58;102096.00;;;6.91;100.00
66164;BME280;52962;51.088;3.096;2022-11-13T06:24:26;102098.63;;;6.91;100.00
66164;BME280;52962;51.088;3.096;2022-11-13T06:26:55;102091.59;;;6.90;100.00
66164;BME280;52962;51.088;3.096;2022-11-13T06:29:23;102090.78;;;6.91;100.00
66164;BME280;52962;51.088;3.096;2022-11-13T06:31:50;102075.06;;;6.91;100.00
66164;BME280;52962;51.088;3.096;2022-11-13T06:34:19;102083.09;;;6.94;100.00
66164;BME280;52962;51.088;3.096;2022-11-13T06:36:46;102079.66;;;6.95;100.00
66164;BME280;52962;51.088;3.096;2022-11-13T06:39:14;102069.09;;;6.94;100.00
66164;BME280;52962;51.088;3.096;2022-11-13T06:41:42;102062.78;;;6.90;100.00
66164;BME280;52962;51.088;3.096;2022-11-13T06:44:11;102066.84;;;6.69;100.00
66164;BME280;52962;51.088;3.096;2022-11-13T06:46:39;102069.16;;;6.79;100.00
66164;BME280;52962;51.088;3.096;2022-11-13T06:49:07;102065.72;;;6.80;100.00
66164;BME280;52962;51.088;3.096;2022-11-13T06:51:35;102063.09;;;6.80;100.00
66164;BME280;52962;51.088;3.096;2022-11-13T06:54:03;102070.03;;;6.79;100.00
66164;BME280;52962;51.088;3.096;2022-11-13T06:56:31;102063.91;;;6.79;100.00
66164;BME280;52962;51.088;3.096;2022-11-13T06:58:58;102064.81;;;6.79;100.00
66164;BME280;52962;51.088;3.096;2022-11-13T07:01:29;102070.94;;;6.80;100.00
66164;BME280;52962;51.088;3.096;2022-11-13T07:03:57;102074.38;;;6.79;100.00
66164;BME280;52962;51.088;3.096;2022-11-13T07:06:25;102072.59;;;6.78;100.00
66164;BME280;52962;51.088;3.096;2022-11-13T07:08:53;102074.38;;;6.79;100.00
66164;BME280;52962;51.088;3.096;2022-11-13T07:11:22;102068.34;;;6.80;100.00
66164;BME280;52962;51.088;3.096;2022-11-13T07:13:50;102071.84;;;6.80;100.00
66164;BME280;52962;51.088;3.096;2022-11-13T07:16:18;102081.75;;;6.86;100.00
66164;BME280;52962;51.088;3.096;2022-11-13T07:18:52;102089.78;;;6.89;100.00
66164;BME280;52962;51.088;3.096;2022-11-13T07:21:20;102081.19;;;6.92;100.00
66164;BME280;52962;51.088;3.096;2022-11-13T07:23:49;102086.78;;;6.98;100.00
66164;BME280;52962;51.088;3.096;2022-11-13T07:26:17;102090.63;;;7.04;100.00
66164;BME280;52962;51.088;3.096;2022-11-13T07:28:45;102088.00;;;7.04;100.00
66164;BME280;52962;51.088;3.096;2022-11-13T07:31:14;102096.19;;;7.10;100.00
66164;BME280;52962;51.088;3.096;2022-11-13T07:33:43;102097.34;;;7.15;100.00
66164;BME280;52962;51.088;3.096;2022-11-13T07:36:12;102092.28;;;7.18;100.00
66164;BME280;52962;51.088;3.096;2022-11-13T07:38:40;102090.63;;;7.20;100.00
66164;BME280;52962;51.088;3.096;2022-11-13T07:41:08;102100.28;;;7.21;100.00
66164;BME280;52962;51.088;3.096;2022-11-13T07:43:36;102096.03;;;7.24;100.00
66164;BME280;52962;51.088;3.096;2022-11-13T07:46:04;102089.00;;;7.22;100.00
66164;BME280;52962;51.088;3.096;2022-11-13T07:48:32;102094.41;;;7.26;100.00
66164;BME280;52962;51.088;3.096;2022-11-13T07:51:00;102082.28;;;7.28;100.00
66164;BME280;52962;51.088;3.096;2022-11-13T07:53:30;102074.47;;;7.29;100.00
66164;BME280;52962;51.088;3.096;2022-11-13T07:56:01;102072.75;;;7.30;100.00
66164;BME280;52962;51.088;3.096;2022-11-13T07:58:29;102078.97;;;7.32;100.00
66164;BME280;52962;51.088;3.096;2022-11-13T08:01:01;102076.44;;;7.33;100.00
66164;BME280;52962;51.088;3.096;2022-11-13T08:03:30;102082.56;;;7.34;100.00
66164;BME280;52962;51.088;3.096;2022-11-13T08:06:02;102078.16;;;7.33;100.00
66164;BME280;52962;51.088;3.096;2022-11-13T08:08:32;102085.28;;;7.35;100.00
66164;BME280;52962;51.088;3.096;2022-11-13T08:11:03;102074.97;;;7.38;100.00
66164;BME280;52962;51.088;3.096;2022-11-13T08:13:31;102071.59;;;7.41;100.00
66164;BME280;52962;51.088;3.096;2022-11-13T08:16:00;102074.38;;;7.44;100.00
66164;BME280;52962;51.088;3.096;2022-11-13T08:18:28;102070.19;;;7.47;100.00
66164;BME280;52962;51.088;3.096;2022-11-13T08:20:59;102059.22;;;7.54;100.00
66164;BME280;52962;51.088;3.096;2022-11-13T08:23:29;102066.66;;;7.63;100.00
66164;BME280;52962;51.088;3.096;2022-11-13T08:26:03;102065.84;;;7.64;100.00
66164;BME280;52962;51.088;3.096;2022-11-13T08:28:32;102063.03;;;7.77;100.00
66164;BME280;52962;51.088;3.096;2022-11-13T08:31:01;102062.81;;;7.91;100.00
66164;BME280;52962;51.088;3.096;2022-11-13T08:33:29;102056.25;;;7.99;100.00
66164;BME280;52962;51.088;3.096;2022-11-13T08:35:58;102062.09;;;8.11;100.00
66164;BME280;52962;51.088;3.096;2022-11-13T08:38:26;102060.00;;;8.22;100.00
66164;BME280;52962;51.088;3.096;2022-11-13T08:40:55;102061.34;;;8.31;100.00
66164;BME280;52962;51.088;3.096;2022-11-13T08:43:25;102053.84;;;8.39;100.00
66164;BME280;52962;51.088;3.096;2022-11-13T08:45:53;102048.16;;;8.47;100.00
66164;BME280;52962;51.088;3.096;2022-11-13T08:48:21;102048.44;;;8.53;100.00
66164;BME280;52962;51.088;3.096;2022-11-13T08:50:50;102048.94;;;8.64;100.00
66164;BME280;52962;51.088;3.096;2022-11-13T08:53:19;102053.88;;;8.76;100.00
66164;BME280;52962;51.088;3.096;2022-11-13T08:55:47;102047.41;;;8.87;100.00
66164;BME280;52962;51.088;3.096;2022-11-13T08:58:15;102046.16;;;8.98;100.00
66164;BME280;52962;51.088;3.096;2022-11-13T09:00:44;102043.00;;;9.05;100.00
66164;BME280;52962;51.088;3.096;2022-11-13T09:03:12;102036.28;;;9.12;100.00
66164;BME280;52962;51.088;3.096;2022-11-13T09:05:40;102030.47;;;9.19;100.00
66164;BME280;52962;51.088;3.096;2022-11-13T09:08:08;102025.44;;;9.24;100.00
66164;BME280;52962;51.088;3.096;2022-11-13T09:10:36;102028.25;;;9.28;100.00
66164;BME280;52962;51.088;3.096;2022-11-13T09:13:04;102022.22;;;9.31;100.00
66164;BME280;52962;51.088;3.096;2022-11-13T09:15:36;102033.84;;;9.36;100.00
66164;BME280;52962;51.088;3.096;2022-11-13T09:18:05;102034.03;;;9.40;100.00
66164;BME280;52962;51.088;3.096;2022-11-13T09:20:33;102022.59;;;9.40;100.00
66164;BME280;52962;51.088;3.096;2022-11-13T09:23:03;102017.47;;;9.43;100.00
66164;BME280;52962;51.088;3.096;2022-11-13T09:25:34;102010.56;;;9.45;100.00
66164;BME280;52962;51.088;3.096;2022-11-13T09:28:05;102015.00;;;9.46;100.00
66164;BME280;52962;51.088;3.096;2022-11-13T09:30:33;102000.19;;;9.48;100.00
66164;BME280;52962;51.088;3.096;2022-11-13T09:33:01;102003.91;;;9.53;100.00
66164;BME280;52962;51.088;3.096;2022-11-13T09:35:31;101994.41;;;9.57;100.00
66164;BME280;52962;51.088;3.096;2022-11-13T09:38:03;101993.66;;;9.59;100.00
66164;BME280;52962;51.088;3.096;2022-11-13T09:40:41;101984.91;;;9.60;100.00
66164;BME280;52962;51.088;3.096;2022-11-13T09:43:19;101984.09;;;9.61;100.00
66164;BME280;52962;51.088;3.096;2022-11-13T09:45:50;101985.94;;;9.64;100.00
66164;BME280;52962;51.088;3.096;2022-11-13T09:48:25;101980.69;;;9.64;100.00
66164;BME280;52962;51.088;3.096;2022-11-13T09:50:56;101980.00;;;9.68;100.00
66164;BME280;52962;51.088;3.096;2022-11-13T09:53:28;101969.66;;;9.72;100.00
66164;BME280;52962;51.088;3.096;2022-11-13T09:56:03;101964.59;;;9.77;100.00
66164;BME280;52962;51.088;3.096;2022-11-13T09:58:45;101956.03;;;9.82;100.00
66164;BME280;52962;51.088;3.096;2022-11-13T10:01:22;101951.03;;;9.89;100.00
66164;BME280;52962;51.088;3.096;2022-11-13T10:03:55;101946.03;;;9.95;100.00
66164;BME280;52962;51.088;3.096;2022-11-13T10:06:39;101943.63;;;10.01;100.00
66164;BME280;52962;51.088;3.096;2022-11-13T10:09:18;101939.16;;;9.98;100.00
66164;BME280;52962;51.088;3.096;2022-11-13T10:11:52;101936.53;;;9.98;100.00
66164;BME280;52962;51.088;3.096;2022-11-13T10:14:28;101934.25;;;10.07;100.00
66164;BME280;52962;51.088;3.096;2022-11-13T10:17:02;101926.47;;;10.10;100.00
66164;BME280;52962;51.088;3.096;2022-11-13T10:19:36;101929.56;;;10.21;100.00
66164;BME280;52962;51.088;3.096;2022-11-13T10:22:17;101925.50;;;10.29;100.00
66164;BME280;52962;51.088;3.096;2022-11-13T10:25:11;101934.28;;;10.30;100.00
66164;BME280;52962;51.088;3.096;2022-11-13T10:27:42;101925.63;;;10.32;100.00
66164;BME280;52962;51.088;3.096;2022-11-13T10:30:14;101929.22;;;10.34;100.00
66164;BME280;52962;51.088;3.096;2022-11-13T10:32:45;101929.47;;;10.42;100.00
66164;BME280;52962;51.088;3.096;2022-11-13T10:35:34;101923.41;;;10.44;100.00
66164;BME280;52962;51.088;3.096;2022-11-13T10:38:06;101913.13;;;10.51;100.00
66164;BME280;52962;51.088;3.096;2022-11-13T10:40:36;101918.00;;;10.64;100.00
66164;BME280;52962;51.088;3.096;2022-11-13T10:43:09;101915.81;;;10.76;100.00
66164;BME280;52962;51.088;3.096;2022-11-13T10:45:41;101910.09;;;10.88;100.00
66164;BME280;52962;51.088;3.096;2022-11-13T10:48:18;101903.41;;;10.97;100.00
66164;BME280;52962;51.088;3.096;2022-11-13T10:50:55;101907.66;;;11.18;100.00
66164;BME280;52962;51.088;3.096;2022-11-13T10:53:27;101909.81;;;11.29;100.00
66164;BME280;52962;51.088;3.096;2022-11-13T10:55:59;101914.47;;;11.36;100.00
66164;BME280;52962;51.088;3.096;2022-11-13T10:58:27;101907.66;;;11.43;100.00
66164;BME280;52962;51.088;3.096;2022-11-13T11:00:55;101904.34;;;11.50;100.00
66164;BME280;52962;51.088;3.096;2022-11-13T11:03:24;101899.28;;;11.56;100.00
66164;BME280;52962;51.088;3.096;2022-11-13T11:05:54;101898.78;;;11.68;100.00
66164;BME280;52962;51.088;3.096;2022-11-13T11:08:27;101892.00;;;11.76;100.00
66164;BME280;52962;51.088;3.096;2022-11-13T11:10:58;101898.41;;;11.83;100.00
66164;BME280;52962;51.088;3.096;2022-11-13T11:13:44;101891.63;;;11.91;100.00
66164;BME280;52962;51.088;3.096;2022-11-13T11:16:17;101894.31;;;11.92;100.00
66164;BME280;52962;51.088;3.096;2022-11-13T11:18:50;101886.44;;;11.94;100.00
66164;BME280;52962;51.088;3.096;2022-11-13T11:21:22;101879.56;;;11.99;100.00
66164;BME280;52962;51.088;3.096;2022-11-13T11:23:57;101868.13;;;11.98;100.00
66164;BME280;52962;51.088;3.096;2022-11-13T11:26:31;101874.38;;;12.02;100.00
66164;BME280;52962;51.088;3.096;2022-11-13T11:29:15;101870.06;;;12.04;100.00
66164;BME280;52962;51.088;3.096;2022-11-13T11:31:47;101854.25;;;12.05;100.00
66164;BME280;52962;51.088;3.096;2022-11-13T11:34:21;101852.59;;;12.09;100.00
66164;BME280;52962;51.088;3.096;2022-11-13T11:36:56;101839.53;;;12.14;100.00
66164;BME280;52962;51.088;3.096;2022-11-13T11:39:34;101836.84;;;12.12;100.00
66164;BME280;52962;51.088;3.096;2022-11-13T11:42:14;101834.22;;;12.12;100.00
66164;BME280;52962;51.088;3.096;2022-11-13T11:44:56;101827.06;;;12.08;100.00
66164;BME280;52962;51.088;3.096;2022-11-13T11:47:27;101824.41;;;12.08;100.00
66164;BME280;52962;51.088;3.096;2022-11-13T11:49:55;101822.94;;;12.18;100.00
66164;BME280;52962;51.088;3.096;2022-11-13T11:52:35;101822.03;;;12.17;100.00
66164;BME280;52962;51.088;3.096;2022-11-13T11:55:18;101810.53;;;12.15;100.00
66164;BME280;52962;51.088;3.096;2022-11-13T11:57:58;101812.31;;;12.16;100.00
66164;BME280;52962;51.088;3.096;2022-11-13T12:00:31;101802.00;;;12.24;100.00
66164;BME280;52962;51.088;3.096;2022-11-13T12:03:36;101791.50;;;12.27;100.00
66164;BME280;52962;51.088;3.096;2022-11-13T12:06:17;101787.09;;;12.26;100.00
66164;BME280;52962;51.088;3.096;2022-11-13T12:08:50;101798.44;;;12.23;100.00
66164;BME280;52962;51.088;3.096;2022-11-13T12:11:26;101785.22;;;12.22;100.00
66164;BME280;52962;51.088;3.096;2022-11-13T12:14:01;101791.59;;;12.30;100.00
66164;BME280;52962;51.088;3.096;2022-11-13T12:16:36;101794.38;;;12.34;100.00
66164;BME280;52962;51.088;3.096;2022-11-13T12:19:11;101795.28;;;12.35;100.00
66164;BME280;52962;51.088;3.096;2022-11-13T12:21:51;101796.16;;;12.35;100.00
66164;BME280;52962;51.088;3.096;2022-11-13T12:24:38;101797.88;;;12.33;100.00
66164;BME280;52962;51.088;3.096;2022-11-13T12:27:16;101801.00;;;12.20;100.00
66164;BME280;52962;51.088;3.096;2022-11-13T12:29:55;101798.28;;;12.17;100.00
66164;BME280;52962;51.088;3.096;2022-11-13T12:32:38;101794.03;;;12.22;100.00
66164;BME280;52962;51.088;3.096;2022-11-13T12:35:14;101786.94;;;12.21;100.00
66164;BME280;52962;51.088;3.096;2022-11-13T12:37:49;101786.94;;;12.21;100.00
66164;BME280;52962;51.088;3.096;2022-11-13T12:40:25;101789.91;;;12.32;100.00
66164;BME280;52962;51.088;3.096;2022-11-13T12:43:18;101787.44;;;12.38;100.00
66164;BME280;52962;51.088;3.096;2022-11-13T12:45:52;101780.47;;;12.41;100.00
66164;BME280;52962;51.088;3.096;2022-11-13T12:48:25;101778.88;;;12.47;100.00
66164;BME280;52962;51.088;3.096;2022-11-13T12:50:58;101779.78;;;12.49;100.00
66164;BME280;52962;51.088;3.096;2022-11-13T12:53:28;101771.78;;;12.46;100.00
66164;BME280;52962;51.088;3.096;2022-11-13T12:55:58;101768.22;;;12.43;100.00
66164;BME280;52962;51.088;3.096;2022-11-13T12:58:29;101764.63;;;12.41;100.00
66164;BME280;52962;51.088;3.096;2022-11-13T13:01:00;101762.81;;;12.39;100.00
66164;BME280;52962;51.088;3.096;2022-11-13T13:03:43;101760.06;;;12.36;100.00